Time;durP1;ratioP1;P1;durP2;ratioP2;P2;SDS_P1;SDS_P2;PMS_P1;PMS_P2;Temp;Humidity;BMP_temperature;BMP_pressure;BME280_temperature;BME280_humidity;BME280_pressure;Samples;Min_cycle;Max_cycle;Signal;HPM_P1;HPM_P2
2021/07/14 00:00:50;;;;;;;6.47;2.63;;;;;;;13.12;88.53;95677.25;5056600;28;20044;-73
2021/07/14 00:03:16;;;;;;;7.68;2.80;;;;;;;13.00;89.22;95674.09;5055566;28;20040;-73
2021/07/14 00:05:41;;;;;;;8.07;3.10;;;;;;;12.98;89.50;95669.09;5054899;28;20036;-73
2021/07/14 00:08:08;;;;;;;7.10;2.63;;;;;;;12.95;89.62;95668.81;5071999;28;20044;-73
2021/07/14 00:10:34;;;;;;;8.55;2.80;;;;;;;12.84;90.24;95663.53;5072562;28;20075;-73
2021/07/14 00:23:49;;;;;;;11.85;4.63;;;;;;;12.72;91.62;95731.59;5072520;28;20071;-72
2021/07/14 00:26:15;;;;;;;12.02;3.88;;;;;;;12.72;91.72;95742.16;5072399;28;20515;-72
2021/07/14 00:28:47;;;;;;;8.48;3.47;;;;;;;12.69;91.64;95731.31;5077337;28;20047;-72
2021/07/14 00:31:14;;;;;;;12.73;3.30;;;;;;;12.63;92.20;95740.28;5076030;28;20528;-73
2021/07/14 00:33:42;;;;;;;10.85;3.38;;;;;;;12.63;92.02;95738.44;5072844;28;20513;-72
2021/07/14 00:36:07;;;;;;;7.80;3.10;;;;;;;12.73;91.87;95741.09;5072877;28;20033;-72
2021/07/14 00:38:33;;;;;;;7.15;3.00;;;;;;;12.69;91.70;95742.66;5072239;28;20098;-71
2021/07/14 00:40:59;;;;;;;8.50;2.85;;;;;;;12.65;91.82;95751.38;5071196;28;20084;-71
2021/07/14 00:43:24;;;;;;;7.55;2.95;;;;;;;12.76;91.75;95761.69;5072093;28;20093;-70
2021/07/14 00:45:50;;;;;;;8.15;2.78;;;;;;;12.69;91.58;95766.41;5072199;28;20036;-71
2021/07/14 00:48:24;;;;;;;9.93;2.90;;;;;;;12.51;92.65;95767.69;5054957;28;20095;-72
2021/07/14 00:50:51;;;;;;;6.95;2.70;;;;;;;12.53;92.79;95775.31;5053163;28;20051;-70
2021/07/14 00:53:17;;;;;;;7.55;2.80;;;;;;;12.59;92.13;95779.56;5078239;28;20074;-72
2021/07/14 00:55:42;;;;;;;8.40;2.53;;;;;;;12.60;92.14;95783.81;5085469;28;20045;-73
2021/07/14 00:58:10;;;;;;;8.52;2.80;;;;;;;12.61;91.99;95774.84;5078669;28;20079;-71
2021/07/14 01:00:36;;;;;;;7.07;3.17;;;;;;;12.57;92.60;95776.41;5080933;28;20044;-71
2021/07/14 01:03:02;;;;;;;7.82;3.15;;;;;;;12.62;91.89;95768.50;5076232;28;20104;-71
2021/07/14 01:05:35;;;;;;;8.73;2.55;;;;;;;12.77;90.70;95747.44;5077454;28;20481;-71
2021/07/14 01:08:11;;;;;;;7.05;2.78;;;;;;;12.64;91.23;95749.78;5059778;28;20049;-69
2021/07/14 01:10:42;;;;;;;7.93;2.88;;;;;;;12.45;92.03;95755.53;5077723;28;20063;-70
2021/07/14 01:13:12;;;;;;;7.90;3.28;;;;;;;12.40;92.72;95762.63;5077662;28;20095;-70
2021/07/14 01:15:44;;;;;;;9.88;3.05;;;;;;;12.46;92.39;95759.75;5075694;28;20033;-70
2021/07/14 01:18:17;;;;;;;7.53;2.90;;;;;;;12.53;92.49;95759.50;5080280;28;20037;-71
2021/07/14 01:20:58;;;;;;;7.80;3.00;;;;;;;12.43;92.65;95755.00;5099250;28;20028;-78
2021/07/14 01:23:36;;;;;;;7.43;3.08;;;;;;;12.41;93.04;95753.66;5072234;28;20071;-76
2021/07/14 01:26:06;;;;;;;9.82;3.20;;;;;;;12.40;93.33;95750.22;5063762;28;20148;-77
2021/07/14 01:28:39;;;;;;;8.60;3.05;;;;;;;12.40;93.96;95752.06;5078541;28;20127;-77
2021/07/14 01:31:06;;;;;;;9.68;3.78;;;;;;;12.38;93.80;95752.34;5080119;28;20036;-77
2021/07/14 01:33:33;;;;;;;7.22;2.97;;;;;;;12.42;93.72;95747.31;5060156;28;20393;-77
2021/07/14 01:36:03;;;;;;;8.02;3.20;;;;;;;12.43;93.45;95743.63;5076538;28;20130;-77
2021/07/14 01:38:35;;;;;;;8.80;3.38;;;;;;;12.41;93.40;95758.94;5077356;28;20075;-78
2021/07/14 01:41:02;;;;;;;8.80;3.53;;;;;;;12.43;92.85;95770.00;5078125;28;20045;-79
2021/07/14 01:43:34;;;;;;;8.90;3.85;;;;;;;12.38;93.59;95780.53;5078687;28;20072;-79
2021/07/14 01:46:01;;;;;;;7.63;3.13;;;;;;;12.67;92.21;95784.34;5059934;28;20051;-79
2021/07/14 01:48:30;;;;;;;7.90;3.33;;;;;;;12.57;92.07;95779.84;5058532;28;20460;-78
2021/07/14 01:50:57;;;;;;;9.90;3.42;;;;;;;12.68;91.69;95764.84;5056080;28;20047;-78
2021/07/14 01:53:25;;;;;;;9.18;3.65;;;;;;;12.42;92.63;95761.31;5038361;28;20401;-78
2021/07/14 01:55:55;;;;;;;10.40;4.15;;;;;;;12.37;93.20;95771.03;5056052;28;20052;-79
2021/07/14 01:58:27;;;;;;;8.45;3.08;;;;;;;12.25;93.42;95758.88;5055637;28;20049;-70
2021/07/14 02:00:55;;;;;;;11.02;3.78;;;;;;;12.27;94.13;95766.53;5066223;28;20130;-69
2021/07/14 02:05:55;;;;;;;10.05;3.80;;;;;;;12.18;93.70;95754.88;5073995;28;20129;-70
2021/07/14 02:08:21;;;;;;;9.70;4.10;;;;;;;12.10;94.24;95745.59;5056619;28;20139;-70
2021/07/14 02:10:49;;;;;;;11.45;4.22;;;;;;;12.21;93.96;95749.06;5074017;28;20124;-73
2021/07/14 02:13:18;;;;;;;;;;;;;;;12.19;94.24;95745.91;5074270;28;20508;-71
2021/07/14 02:15:45;;;;;;;9.52;4.07;;;;;;;12.08;94.36;95737.16;5073414;28;20019;-70
2021/07/14 02:18:14;;;;;;;10.02;4.28;;;;;;;12.09;94.41;95729.00;5072847;28;20062;-71
2021/07/14 02:20:40;;;;;;;9.60;4.28;;;;;;;12.08;94.61;95716.06;5081627;28;20036;-71
2021/07/14 02:23:07;;;;;;;9.93;4.30;;;;;;;12.13;93.85;95713.47;5075046;28;20033;-72
2021/07/14 02:25:33;;;;;;;10.07;4.90;;;;;;;12.06;94.40;95724.25;5074113;28;20052;-77
2021/07/14 02:28:01;;;;;;;10.40;5.05;;;;;;;12.00;94.56;95725.28;5074042;28;20050;-76
2021/07/14 02:30:26;;;;;;;;;;;;;;;12.06;94.66;95731.38;5056946;28;20502;-76
2021/07/14 02:32:54;;;;;;;9.45;4.53;;;;;;;12.24;94.02;95728.28;5055902;28;19920;-76
2021/07/14 02:35:22;;;;;;;10.73;4.75;;;;;;;12.19;93.89;95725.63;5056327;28;20059;-70
2021/07/14 02:37:52;;;;;;;14.15;5.07;;;;;;;12.18;93.66;95731.94;5111258;22;20051;-77
2021/07/14 02:40:24;;;;;;;9.85;4.72;;;;;;;12.29;93.07;95743.31;5118632;28;20035;-76
2021/07/14 02:42:56;;;;;;;10.10;4.30;;;;;;;12.47;92.42;95749.97;5118222;28;20057;-77
2021/07/14 02:45:23;;;;;;;21.98;5.18;;;;;;;12.43;92.95;95748.91;5118075;27;20040;-76
2021/07/14 02:47:50;;;;;;;11.65;4.78;;;;;;;12.42;92.77;95747.31;5103974;28;20040;-77
2021/07/14 02:50:23;;;;;;;10.55;4.60;;;;;;;12.37;93.02;95750.72;5096378;28;20054;-77
2021/07/14 02:52:54;;;;;;;10.90;5.20;;;;;;;12.30;93.50;95744.91;5118328;28;20070;-76
2021/07/14 02:55:26;;;;;;;10.30;4.30;;;;;;;12.53;92.85;95755.00;5123389;27;20507;-76
2021/07/14 02:57:54;;;;;;;10.80;4.75;;;;;;;12.49;92.60;95742.63;5118876;28;20519;-76
2021/07/14 03:00:21;;;;;;;10.18;4.57;;;;;;;12.60;92.24;95741.59;5118864;28;20043;-76
2021/07/14 03:02:48;;;;;;;11.77;4.63;;;;;;;12.56;92.39;95743.16;5116493;28;20046;-76
2021/07/14 03:05:15;;;;;;;10.82;4.53;;;;;;;12.51;92.28;95756.34;5115899;28;20043;-76
2021/07/14 03:07:42;;;;;;;11.32;4.80;;;;;;;12.53;92.35;95754.22;5116041;28;20042;-76
2021/07/14 03:10:11;;;;;;;11.35;4.63;;;;;;;12.46;92.57;95756.31;5118068;28;20046;-77
2021/07/14 03:12:37;;;;;;;11.43;4.75;;;;;;;12.52;92.23;95752.63;5121868;28;20081;-76
2021/07/14 03:15:08;;;;;;;11.05;4.65;;;;;;;12.54;92.17;95740.00;5122207;28;20542;-76
2021/07/14 03:17:38;;;;;;;13.65;4.72;;;;;;;12.47;92.58;95745.50;5116403;28;20043;-76
2021/07/14 03:20:08;;;;;;;10.70;4.68;;;;;;;12.43;92.51;95746.28;5116287;28;20040;-76
2021/07/14 03:22:38;;;;;;;8.88;4.63;;;;;;;12.55;92.33;95738.94;5116086;28;20054;-76
2021/07/14 03:25:05;;;;;;;10.75;4.68;;;;;;;12.45;92.66;95728.34;5115954;28;20095;-77
2021/07/14 03:27:32;;;;;;;10.13;4.90;;;;;;;12.47;91.83;95739.44;5116833;28;20043;-76
2021/07/14 03:30:01;;;;;;;11.30;5.53;;;;;;;12.35;92.96;95744.94;5115599;28;20046;-76
2021/07/14 03:32:29;;;;;;;11.43;4.97;;;;;;;12.45;92.63;95744.19;5115507;28;20272;-77
2021/07/14 03:34:55;;;;;;;13.80;5.47;;;;;;;12.46;92.36;95753.69;5121389;28;20383;-77
2021/07/14 03:37:21;;;;;;;15.25;5.40;;;;;;;12.26;93.32;95754.38;5118113;28;20384;-77
2021/07/14 03:39:48;;;;;;;10.43;5.00;;;;;;;12.46;92.86;95749.19;5125933;28;20039;-77
2021/07/14 03:42:15;;;;;;;12.15;5.15;;;;;;;12.39;92.95;95747.84;5120384;28;20044;-77
2021/07/14 03:44:45;;;;;;;12.68;4.88;;;;;;;12.30;93.39;95747.53;5117792;28;20360;-77
2021/07/14 03:47:12;;;;;;;13.65;5.43;;;;;;;12.32;93.42;95748.91;5108084;28;20036;-77
2021/07/14 03:49:39;;;;;;;11.82;5.10;;;;;;;12.34;93.70;95743.34;5095405;28;20467;-77
2021/07/14 03:52:06;;;;;;;12.38;5.03;;;;;;;12.29;93.57;95738.84;5093557;28;20040;-74
2021/07/14 03:54:33;;;;;;;10.25;5.13;;;;;;;12.42;93.18;95742.06;5095378;28;20051;-77
2021/07/14 03:57:00;;;;;;;11.45;5.38;;;;;;;12.31;93.87;95742.00;5094281;28;20036;-74
2021/07/14 03:59:26;;;;;;;14.80;5.68;;;;;;;12.43;93.38;95748.91;5109875;27;20229;-80
2021/07/14 04:01:53;;;;;;;11.30;4.97;;;;;;;12.55;93.17;95741.59;5126131;28;20051;-79
2021/07/14 04:04:20;;;;;;;9.80;4.55;;;;;;;12.53;92.96;95748.94;5116342;28;20119;-75
2021/07/14 04:06:51;;;;;;;13.15;5.05;;;;;;;12.56;92.65;95751.06;5113851;28;20057;-75
2021/07/14 04:09:22;;;;;;;10.43;5.18;;;;;;;12.54;92.51;95758.47;5117726;28;20043;-76
2021/07/14 04:11:51;;;;;;;12.60;4.60;;;;;;;12.55;92.65;95758.19;5117775;28;20059;-81
2021/07/14 04:14:17;;;;;;;11.77;4.53;;;;;;;12.67;92.17;95755.34;5119496;28;20051;-79
2021/07/14 04:16:42;;;;;;;13.30;4.38;;;;;;;12.67;91.77;95752.69;5117967;28;20032;-78
2021/07/14 04:19:09;;;;;;;10.57;4.40;;;;;;;12.66;91.96;95748.47;5119112;28;20040;-79
2021/07/14 04:21:37;;;;;;;11.32;4.03;;;;;;;12.73;91.88;95751.66;5119730;28;20059;-82
2021/07/14 04:24:06;;;;;;;10.88;3.90;;;;;;;12.77;91.59;95760.66;5124062;27;20047;-80
2021/07/14 04:26:33;;;;;;;10.30;3.80;;;;;;;12.72;91.71;95765.13;5131207;27;20123;-74
2021/07/14 04:28:58;;;;;;;10.68;3.63;;;;;;;12.87;91.24;95760.66;5124640;28;20100;-75
2021/07/14 04:31:26;;;;;;;10.13;3.88;;;;;;;12.83;91.25;95753.53;5126350;28;20082;-75
2021/07/14 04:33:52;;;;;;;;;;;;;;;12.81;91.32;95740.59;5118416;28;20048;-76
2021/07/14 04:36:21;;;;;;;8.75;3.33;;;;;;;13.08;90.35;95740.38;5118371;28;19919;-76
2021/07/14 04:38:47;;;;;;;9.98;3.20;;;;;;;13.16;89.34;95741.69;5118880;28;20051;-76
2021/07/14 04:41:13;;;;;;;9.35;3.30;;;;;;;13.00;89.42;95742.72;5122416;28;20414;-80
2021/07/14 04:43:38;;;;;;;8.85;3.47;;;;;;;12.97;89.94;95746.69;5122886;28;20043;-80
2021/07/14 04:46:04;;;;;;;9.00;3.35;;;;;;;13.03;89.91;95742.22;5123397;28;20039;-81
2021/07/14 04:48:30;;;;;;;8.80;3.03;;;;;;;13.13;88.82;95739.59;5112669;28;20032;-78
2021/07/14 04:50:56;;;;;;;9.27;3.05;;;;;;;13.07;89.67;95743.25;5121239;28;20043;-77
2021/07/14 04:53:23;;;;;;;8.68;3.47;;;;;;;13.06;89.73;95739.03;5121096;28;20071;-76
2021/07/14 04:55:51;;;;;;;8.88;3.30;;;;;;;13.17;89.65;95737.22;5118201;28;20055;-77
2021/07/14 04:58:17;;;;;;;7.40;2.95;;;;;;;13.29;88.97;95729.84;5117755;28;20039;-77
2021/07/14 05:00:42;;;;;;;9.18;2.83;;;;;;;13.29;88.51;95735.94;5117625;28;20046;-77
2021/07/14 05:03:08;;;;;;;7.70;3.00;;;;;;;13.47;87.56;95731.97;5117987;28;20495;-77
2021/07/14 05:05:35;;;;;;;10.00;3.25;;;;;;;13.37;87.89;95738.03;5117407;28;20571;-75
2021/07/14 05:08:03;;;;;;;7.90;3.00;;;;;;;13.52;87.08;95745.19;5116989;28;20039;-76
2021/07/14 05:10:31;;;;;;;12.10;3.20;;;;;;;13.55;86.48;95751.75;5116866;28;20039;-75
2021/07/14 05:12:56;;;;;;;8.00;3.10;;;;;;;13.47;87.21;95749.66;5118304;28;20066;-76
2021/07/14 05:15:22;;;;;;;8.02;2.85;;;;;;;13.49;87.08;95747.53;5117439;28;20044;-75
2021/07/14 05:17:48;;;;;;;10.52;3.17;;;;;;;13.56;86.67;95756.81;5117083;28;20550;-77
2021/07/14 05:20:13;;;;;;;9.88;2.80;;;;;;;13.74;86.49;95758.09;5116633;28;20037;-77
2021/07/14 05:22:39;;;;;;;10.90;3.35;;;;;;;13.64;86.64;95760.75;5118177;28;20036;-76
2021/07/14 05:25:08;;;;;;;8.02;3.30;;;;;;;13.74;86.32;95763.38;5121515;28;20040;-79
2021/07/14 05:27:35;;;;;;;8.63;2.95;;;;;;;13.54;87.63;95760.75;5119695;28;20285;-77
2021/07/14 05:30:03;;;;;;;9.70;2.90;;;;;;;13.50;87.11;95754.41;5120860;28;20044;-76
2021/07/14 05:32:29;;;;;;;9.98;2.88;;;;;;;13.55;87.31;95759.69;5116000;28;20065;-76
2021/07/14 05:34:55;;;;;;;9.95;3.00;;;;;;;13.46;87.72;95756.81;5123222;28;20039;-86
2021/07/14 05:37:21;;;;;;;9.55;3.40;;;;;;;13.50;87.39;95757.06;5135376;27;20050;-79
2021/07/14 05:39:49;;;;;;;10.00;3.22;;;;;;;13.74;86.07;95759.97;5130217;28;20092;-79
2021/07/14 05:42:17;;;;;;;;;;;;;;;13.66;86.61;95758.63;5126303;27;20242;-79
2021/07/14 05:44:47;;;;;;;;;;;;;;;13.54;86.43;95755.47;5129903;28;19915;-80
2021/07/14 05:47:12;;;;;;;8.82;3.20;;;;;;;13.67;86.27;95744.38;5124833;28;19920;-79
2021/07/14 05:49:38;;;;;;;8.98;3.60;;;;;;;13.73;86.29;95745.94;5106385;28;20090;-78
2021/07/14 05:52:08;;;;;;;10.60;3.35;;;;;;;13.98;85.52;95737.16;5108509;28;20048;-85
2021/07/14 05:54:34;;;;;;;10.82;3.50;;;;;;;13.93;85.53;95724.75;5112620;28;20123;-79
2021/07/14 05:57:00;;;;;;;8.85;3.30;;;;;;;14.21;84.30;95735.00;5105653;28;20070;-80
2021/07/14 05:59:25;;;;;;;12.23;4.00;;;;;;;14.15;85.06;95742.97;5107159;28;20349;-77
2021/07/14 06:01:53;;;;;;;9.98;3.22;;;;;;;14.17;84.80;95745.31;5112089;28;20508;-83
2021/07/14 06:04:19;;;;;;;;;;;;;;;14.20;84.43;95747.41;5120113;28;20031;-85
2021/07/14 06:06:45;;;;;;;8.77;2.90;;;;;;;14.62;82.27;95747.03;5124770;27;19904;-83
2021/07/14 06:09:11;;;;;;;9.63;2.85;;;;;;;14.56;81.59;95742.03;5124877;28;20035;-85
2021/07/14 06:11:36;;;;;;;10.23;3.00;;;;;;;14.69;81.15;95746.75;5134473;28;20139;-81
2021/07/14 06:14:02;;;;;;;8.45;2.97;;;;;;;14.57;81.65;95741.75;5134297;28;20031;-82
2021/07/14 06:16:28;;;;;;;9.70;3.28;;;;;;;14.89;80.52;95743.16;5136107;28;20040;-83
2021/07/14 06:18:57;;;;;;;9.45;3.20;;;;;;;14.86;79.89;95733.94;5127774;28;20138;-81
2021/07/14 06:21:23;;;;;;;8.50;2.80;;;;;;;15.07;79.12;95731.16;5130933;28;20059;-78
2021/07/14 06:23:48;;;;;;;8.07;3.30;;;;;;;14.74;81.25;95740.59;5103863;28;20051;-78
2021/07/14 06:26:14;;;;;;;8.40;2.95;;;;;;;14.91;80.57;95739.19;5104496;28;20139;-78
2021/07/14 06:28:40;;;;;;;7.80;3.15;;;;;;;14.87;80.51;95729.44;5102376;28;20464;-79
2021/07/14 06:31:05;;;;;;;8.98;3.08;;;;;;;15.01;79.49;95732.25;5102599;28;20036;-79
2021/07/14 06:33:32;;;;;;;7.65;3.28;;;;;;;14.95;79.60;95723.53;5117681;28;20046;-79
2021/07/14 06:36:02;;;;;;;9.98;3.15;;;;;;;15.23;79.52;95725.47;5122818;28;20032;-79
2021/07/14 06:38:29;;;;;;;10.10;3.17;;;;;;;15.20;78.56;95730.53;5123346;28;20054;-79
2021/07/14 06:40:58;;;;;;;8.38;2.75;;;;;;;15.24;78.68;95731.56;5133762;28;20027;-75
2021/07/14 06:43:41;;;;;;;7.65;3.00;;;;;;;15.25;79.18;95732.34;5126801;27;20043;-79
2021/07/14 06:46:07;;;;;;;8.45;3.20;;;;;;;15.33;78.95;95731.75;5122032;28;20043;-78
2021/07/14 06:48:32;;;;;;;7.13;2.72;;;;;;;15.61;78.24;95727.56;5102726;28;20055;-78
2021/07/14 06:50:59;;;;;;;7.07;2.60;;;;;;;15.90;77.19;95736.31;5119943;28;20048;-76
2021/07/14 06:53:25;;;;;;;8.98;3.13;;;;;;;16.40;75.55;95731.50;5118788;28;20044;-78
2021/07/14 06:55:51;;;;;;;7.15;2.67;;;;;;;16.82;73.25;95735.25;5120616;28;20091;-78
2021/07/14 06:58:17;;;;;;;10.02;2.90;;;;;;;17.47;70.84;95730.03;5121579;28;20035;-75
2021/07/14 07:00:43;;;;;;;10.38;3.15;;;;;;;17.75;69.98;95724.81;5118400;28;20047;-77
2021/07/14 07:03:09;;;;;;;9.63;2.90;;;;;;;17.87;68.46;95727.03;5119818;28;20043;-78
2021/07/14 07:05:35;;;;;;;10.23;3.50;;;;;;;18.52;67.09;95722.31;5120595;28;20051;-78
2021/07/14 07:08:02;;;;;;;9.75;3.50;;;;;;;18.52;66.18;95719.66;5122018;28;20036;-78
2021/07/14 07:10:28;;;;;;;9.40;3.38;;;;;;;19.63;64.32;95730.78;5117660;28;20055;-77
2021/07/14 07:12:54;;;;;;;9.98;3.70;;;;;;;19.06;63.76;95736.63;5122841;28;20039;-79
2021/07/14 07:15:20;;;;;;;9.00;3.08;;;;;;;19.74;62.56;95734.00;5119916;28;20479;-77
2021/07/14 07:17:45;;;;;;;9.88;3.40;;;;;;;19.70;62.60;95730.38;5120813;28;20044;-76
2021/07/14 07:20:14;;;;;;;9.88;3.42;;;;;;;19.23;63.98;95733.31;5121019;28;20048;-77
2021/07/14 07:22:40;;;;;;;8.82;3.17;;;;;;;18.95;65.42;95737.16;5118803;27;20100;-78
2021/07/14 07:25:10;;;;;;;8.90;3.13;;;;;;;18.93;63.82;95739.31;5120058;28;20036;-78
2021/07/14 07:27:37;;;;;;;8.27;3.75;;;;;;;18.43;66.01;95748.06;5122164;28;20066;-77
2021/07/14 07:30:05;;;;;;;8.85;3.67;;;;;;;18.47;66.04;95746.38;5119243;28;20047;-77
2021/07/14 07:32:31;;;;;;;11.45;3.85;;;;;;;17.91;68.63;95744.75;5119969;28;20415;-76
2021/07/14 07:34:59;;;;;;;8.90;3.70;;;;;;;18.12;67.77;95747.06;5120287;28;20047;-77
2021/07/14 07:37:25;;;;;;;8.90;3.60;;;;;;;18.41;66.32;95750.22;5120388;28;20027;-77
2021/07/14 07:39:51;;;;;;;8.18;3.00;;;;;;;17.87;67.76;95764.28;5120643;28;20104;-76
2021/07/14 07:42:19;;;;;;;7.28;2.45;;;;;;;17.84;68.56;95761.09;5122721;28;20099;-76
2021/07/14 07:44:45;;;;;;;8.95;2.38;;;;;;;18.04;67.70;95767.16;5125133;28;20043;-76
2021/07/14 07:47:11;;;;;;;9.48;2.50;;;;;;;17.93;68.33;95771.88;5116593;27;20140;-77
2021/07/14 07:49:38;;;;;;;7.78;2.45;;;;;;;17.85;68.78;95769.88;5108299;28;20049;-78
2021/07/14 07:52:05;;;;;;;9.13;2.63;;;;;;;17.81;69.00;95768.88;5104866;28;20062;-78
2021/07/14 07:54:31;;;;;;;7.40;2.50;;;;;;;18.21;68.11;95771.91;5098635;28;20060;-76
2021/07/14 07:56:56;;;;;;;8.15;3.17;;;;;;;18.04;67.43;95772.50;5101244;28;20046;-79
2021/07/14 07:59:23;;;;;;;7.25;2.80;;;;;;;18.18;67.87;95772.50;5118397;28;20122;-78
2021/07/14 08:01:49;;;;;;;7.07;2.50;;;;;;;17.87;68.77;95780.25;5116567;28;20418;-77
2021/07/14 08:04:16;;;;;;;7.57;2.83;;;;;;;17.89;68.52;95776.19;5120297;28;20127;-78
2021/07/14 08:06:41;;;;;;;9.05;2.85;;;;;;;17.76;68.96;95784.94;5119007;28;20032;-77
2021/07/14 08:09:07;;;;;;;9.93;2.67;;;;;;;17.46;69.82;95783.53;5117781;28;20063;-77
2021/07/14 08:11:33;;;;;;;9.85;2.90;;;;;;;17.45;69.61;95789.91;5118350;28;20048;-78
2021/07/14 08:13:59;;;;;;;6.05;2.60;;;;;;;17.53;69.32;95790.03;5118961;28;20043;-78
2021/07/14 08:16:27;;;;;;;8.32;2.70;;;;;;;17.48;69.74;95795.44;5120560;28;20137;-76
2021/07/14 08:18:53;;;;;;;6.93;2.47;;;;;;;17.06;70.61;95799.00;5119589;28;20132;-78
2021/07/14 08:21:19;;;;;;;7.00;2.38;;;;;;;17.24;70.71;95802.72;5119679;28;20071;-78
2021/07/14 08:23:44;;;;;;;7.38;2.40;;;;;;;17.42;69.91;95798.47;5121004;28;20048;-76
2021/07/14 08:26:12;;;;;;;7.25;2.40;;;;;;;17.63;69.35;95801.59;5118293;28;20100;-75
2021/07/14 08:28:38;;;;;;;7.18;2.92;;;;;;;18.00;68.56;95798.88;5117718;28;20047;-78
2021/07/14 08:31:03;;;;;;;7.53;2.33;;;;;;;17.91;68.41;95800.63;5117331;28;20032;-77
2021/07/14 08:33:31;;;;;;;7.13;2.50;;;;;;;18.00;67.80;95801.56;5129431;28;20036;-76
2021/07/14 08:35:57;;;;;;;7.87;2.30;;;;;;;18.17;67.43;95802.84;5123777;28;20105;-76
2021/07/14 08:38:22;;;;;;;7.82;2.30;;;;;;;18.37;66.69;95802.50;5099039;22;20301;-76
2021/07/14 08:40:53;;;;;;;7.38;2.40;;;;;;;18.29;65.71;95800.50;5072233;28;20055;-76
2021/07/14 08:43:27;;;;;;;7.72;2.53;;;;;;;18.30;66.63;95799.44;5054154;28;20044;-75
2021/07/14 08:45:53;;;;;;;7.35;2.20;;;;;;;18.46;65.61;95797.28;5072185;28;20055;-75
2021/07/14 08:48:19;;;;;;;6.18;2.40;;;;;;;18.94;65.48;95804.88;5062344;28;20040;-76
2021/07/14 08:50:48;;;;;;;9.18;2.65;;;;;;;19.09;64.17;95804.53;5072476;28;20048;-76
2021/07/14 08:53:18;;;;;;;7.90;2.70;;;;;;;18.88;64.07;95804.19;5072894;28;20100;-75
2021/07/14 08:55:44;;;;;;;7.43;2.45;;;;;;;19.29;63.92;95803.31;5073506;28;20048;-75
2021/07/14 08:58:11;;;;;;;6.40;2.30;;;;;;;19.50;63.64;95812.44;5073024;28;20044;-75
2021/07/14 09:00:37;;;;;;;7.40;3.25;;;;;;;19.21;63.91;95814.69;5054710;28;20052;-75
2021/07/14 09:03:04;;;;;;;7.63;2.70;;;;;;;19.44;62.51;95812.88;5063170;28;20040;-76
2021/07/14 09:05:30;;;;;;;12.83;3.10;;;;;;;19.47;62.33;95813.03;5083011;28;20044;-75
2021/07/14 09:07:57;;;;;;;8.25;2.50;;;;;;;19.68;62.87;95821.38;5076059;28;20326;-75
2021/07/14 09:10:25;;;;;;;9.70;3.72;;;;;;;19.99;61.06;95818.00;5056728;28;20423;-76
2021/07/14 09:12:56;;;;;;;11.00;4.18;;;;;;;20.09;61.49;95823.88;5075525;28;20136;-76
2021/07/14 09:15:26;;;;;;;6.40;2.60;;;;;;;19.77;61.96;95816.13;5076698;28;20510;-75
2021/07/14 09:17:54;;;;;;;8.27;2.63;;;;;;;19.74;61.51;95814.06;5076091;28;20039;-76
2021/07/14 09:20:23;;;;;;;6.30;2.28;;;;;;;19.99;61.92;95809.97;5076579;28;20052;-75
2021/07/14 09:23:07;;;;;;;7.57;2.42;;;;;;;20.27;61.35;95816.72;5076285;28;20052;-76
2021/07/14 09:25:41;;;;;;;6.40;2.33;;;;;;;19.99;61.24;95824.13;5076727;28;20115;-74
2021/07/14 09:28:08;;;;;;;7.18;2.50;;;;;;;20.06;61.88;95824.47;5058400;28;20404;-75
2021/07/14 09:30:36;;;;;;;7.55;2.50;;;;;;;20.01;61.34;95824.59;5079854;28;20041;-75
2021/07/14 09:33:06;;;;;;;7.53;2.80;;;;;;;19.82;61.87;95824.78;5077804;28;20048;-75
2021/07/14 09:35:35;;;;;;;9.00;2.90;;;;;;;19.92;61.59;95829.91;5076063;28;20052;-76
2021/07/14 09:38:05;;;;;;;6.80;2.70;;;;;;;19.85;61.97;95824.19;5078525;28;20098;-76
2021/07/14 09:40:31;;;;;;;5.90;2.40;;;;;;;19.71;62.50;95825.34;5075643;28;20494;-75
2021/07/14 09:43:00;;;;;;;7.30;2.40;;;;;;;19.97;60.62;95831.66;5075581;28;20051;-75
2021/07/14 09:45:40;;;;;;;7.15;2.80;;;;;;;19.81;61.66;95833.13;5057276;28;20094;-75
2021/07/14 09:48:07;;;;;;;7.78;2.55;;;;;;;19.52;62.18;95830.81;5059092;28;20131;-76
2021/07/14 09:50:35;;;;;;;7.45;2.58;;;;;;;19.99;61.61;95842.03;5055274;28;20405;-75
2021/07/14 09:53:04;;;;;;;5.72;2.22;;;;;;;19.57;62.90;95839.47;5037066;28;20500;-76
2021/07/14 09:55:31;;;;;;;7.13;2.67;;;;;;;19.04;63.05;95840.09;5038655;28;20041;-75
2021/07/14 09:58:11;;;;;;;6.65;2.60;;;;;;;18.98;63.55;95841.28;5074869;28;20458;-76
2021/07/14 10:00:42;;;;;;;6.00;2.30;;;;;;;18.85;64.36;95844.75;5075690;28;20048;-75
2021/07/14 10:03:08;;;;;;;7.50;2.50;;;;;;;18.81;64.87;95846.44;5057403;28;20113;-76
2021/07/14 10:05:34;;;;;;;7.38;2.90;;;;;;;18.50;65.76;95844.31;5056601;28;20154;-75
2021/07/14 10:08:21;;;;;;;6.25;2.35;;;;;;;18.95;64.15;95838.44;5074361;28;20135;-75
2021/07/14 10:10:49;;;;;;;7.10;2.80;;;;;;;19.02;63.45;95844.16;5074560;28;20591;-75
2021/07/14 10:13:17;;;;;;;9.35;2.60;;;;;;;19.36;62.06;95841.03;5074020;28;20051;-76
2021/07/14 10:15:43;;;;;;;5.70;2.20;;;;;;;19.84;60.88;95835.16;5073944;28;20416;-76
2021/07/14 10:18:11;;;;;;;7.53;2.72;;;;;;;19.96;61.47;95840.72;5074089;28;20048;-75
2021/07/14 10:20:42;;;;;;;7.15;2.70;;;;;;;20.07;60.18;95838.59;5074464;28;20131;-75
2021/07/14 10:23:10;;;;;;;7.25;3.22;;;;;;;20.23;59.00;95845.13;5073890;28;20098;-75
2021/07/14 10:25:39;;;;;;;7.53;2.75;;;;;;;20.46;58.44;95843.25;5074760;28;20040;-75
2021/07/14 10:28:06;;;;;;;7.60;2.80;;;;;;;20.88;57.94;95841.06;5074134;28;20166;-75
2021/07/14 10:30:32;;;;;;;6.53;2.70;;;;;;;21.52;56.19;95841.34;5074397;28;20037;-75
2021/07/14 10:32:59;;;;;;;6.47;2.55;;;;;;;20.98;56.29;95838.09;5074190;28;20063;-75
2021/07/14 10:35:30;;;;;;;11.18;2.60;;;;;;;20.76;56.98;95840.84;5056126;28;20076;-76
2021/07/14 10:37:58;;;;;;;7.70;2.30;;;;;;;20.71;56.53;95834.53;5073808;28;20142;-75
2021/07/14 10:40:24;;;;;;;6.55;2.58;;;;;;;21.00;56.45;95841.25;5074178;28;20051;-75
2021/07/14 10:42:53;;;;;;;6.80;2.42;;;;;;;20.97;55.80;95836.53;5056095;28;20063;-75
2021/07/14 10:45:22;;;;;;;7.35;2.45;;;;;;;20.76;56.74;95840.84;5073546;28;20039;-75
2021/07/14 10:47:50;;;;;;;7.10;2.80;;;;;;;20.50;57.05;95844.22;5073651;28;20105;-74
2021/07/14 10:50:17;;;;;;;8.18;3.20;;;;;;;21.06;56.69;95849.91;5074208;28;20072;-74
2021/07/14 10:52:43;;;;;;;;;;;;;;;20.75;55.11;95849.97;5074384;28;20522;-73
2021/07/14 10:55:12;;;;;;;8.05;2.65;;;;;;;21.04;54.97;95847.56;5056499;28;19921;-73
2021/07/14 10:57:39;;;;;;;7.43;3.03;;;;;;;21.12;54.08;95852.13;5073444;28;20060;-73
2021/07/14 11:00:08;;;;;;;7.60;2.67;;;;;;;21.19;51.88;95851.66;5073951;28;20047;-74
2021/07/14 11:02:39;;;;;;;7.22;2.65;;;;;;;21.32;53.12;95852.69;5077351;28;20044;-73
2021/07/14 11:05:06;;;;;;;7.97;2.33;;;;;;;21.73;51.61;95847.66;5087031;28;20055;-74
2021/07/14 11:07:40;;;;;;;7.23;2.73;;;;;;;21.43;51.59;95832.53;5090212;28;20044;-73
2021/07/14 11:10:25;;;;;;;6.40;2.33;;;;;;;21.58;51.28;95834.75;5076821;28;20106;-74
2021/07/14 11:12:51;;;;;;;8.10;2.72;;;;;;;21.74;52.66;95827.03;5080310;28;20071;-73
2021/07/14 11:15:29;;;;;;;7.10;2.58;;;;;;;22.20;49.85;95834.41;5076815;28;20508;-73
2021/07/14 11:17:55;;;;;;;6.70;2.53;;;;;;;22.35;48.87;95833.09;5079517;28;20036;-73
2021/07/14 11:20:21;;;;;;;7.47;2.40;;;;;;;21.70;50.81;95834.91;5056047;28;20048;-73
2021/07/14 11:22:52;;;;;;;7.90;2.60;;;;;;;22.20;50.97;95828.25;5076605;28;20047;-74
2021/07/14 11:25:24;;;;;;;6.55;2.40;;;;;;;22.52;48.99;95829.56;5077449;28;20456;-74
2021/07/14 11:27:51;;;;;;;6.57;2.28;;;;;;;22.85;47.71;95821.69;5073813;28;20043;-74
2021/07/14 11:30:27;;;;;;;5.70;2.10;;;;;;;22.50;49.17;95823.75;5074197;28;20441;-74
2021/07/14 11:32:55;;;;;;;7.60;2.20;;;;;;;21.86;50.01;95834.44;5073372;28;20033;-74
2021/07/14 11:35:22;;;;;;;7.50;2.20;;;;;;;22.05;50.63;95832.19;5072960;28;20056;-74
2021/07/14 11:38:00;;;;;;;6.90;2.40;;;;;;;22.35;51.11;95824.28;5054006;28;20064;-74
2021/07/14 11:40:40;;;;;;;6.28;2.10;;;;;;;22.43;50.00;95820.75;5072893;28;20064;-74
2021/07/14 11:43:23;;;;;;;6.70;1.85;;;;;;;22.67;48.57;95814.84;5072894;28;20048;-73
2021/07/14 11:45:52;;;;;;;5.32;2.03;;;;;;;22.59;49.58;95812.97;5072572;28;20051;-72
2021/07/14 11:48:30;;;;;;;5.60;2.20;;;;;;;22.50;50.86;95815.72;5055313;28;20067;-74
2021/07/14 11:50:58;;;;;;;6.45;2.17;;;;;;;22.50;50.41;95811.13;5034900;28;20127;-73